sensor_id;sensor_type;location;lat;lon;timestamp;pressure;altitude;pressure_sealevel;temperature;humidity
8229;BME280;4155;50.118;8.714;2022-09-30T00:01:27;99302.44;;;7.75;99.10
8229;BME280;4155;50.118;8.714;2022-09-30T00:03:57;99303.66;;;7.72;99.49
8229;BME280;4155;50.118;8.714;2022-09-30T00:06:26;99308.97;;;7.66;99.61
8229;BME280;4155;50.118;8.714;2022-09-30T00:08:55;99309.16;;;7.64;99.27
8229;BME280;4155;50.118;8.714;2022-09-30T00:11:24;99304.41;;;7.60;99.37
8229;BME280;4155;50.118;8.714;2022-09-30T00:13:53;99308.31;;;7.64;99.53
8229;BME280;4155;50.118;8.714;2022-09-30T00:16:22;99314.69;;;7.63;99.76
8229;BME280;4155;50.118;8.714;2022-09-30T00:18:52;99316.31;;;7.64;99.60
8229;BME280;4155;50.118;8.714;2022-09-30T00:21:22;99308.72;;;7.61;99.82
8229;BME280;4155;50.118;8.714;2022-09-30T00:23:51;99306.88;;;7.61;100.00
8229;BME280;4155;50.118;8.714;2022-09-30T00:26:22;99311.25;;;7.69;100.00
8229;BME280;4155;50.118;8.714;2022-09-30T00:28:51;99309.19;;;7.71;100.00
8229;BME280;4155;50.118;8.714;2022-09-30T00:31:20;99305.34;;;7.80;99.53
8229;BME280;4155;50.118;8.714;2022-09-30T00:33:49;99303.19;;;7.62;99.19
8229;BME280;4155;50.118;8.714;2022-09-30T00:36:32;99309.75;;;7.60;99.58
8229;BME280;4155;50.118;8.714;2022-09-30T00:39:00;99305.22;;;7.60;100.00
8229;BME280;4155;50.118;8.714;2022-09-30T00:41:28;99302.13;;;7.57;99.62
8229;BME280;4155;50.118;8.714;2022-09-30T00:43:55;99319.16;;;7.56;99.96
8229;BME280;4155;50.118;8.714;2022-09-30T00:46:30;99320.00;;;7.63;99.94
8229;BME280;4155;50.118;8.714;2022-09-30T00:49:02;99321.84;;;7.56;100.00
8229;BME280;4155;50.118;8.714;2022-09-30T00:51:35;99326.97;;;7.57;99.84
8229;BME280;4155;50.118;8.714;2022-09-30T00:54:09;99337.34;;;7.45;99.87
8229;BME280;4155;50.118;8.714;2022-09-30T00:56:39;99338.59;;;7.49;100.00
8229;BME280;4155;50.118;8.714;2022-09-30T00:59:12;99335.88;;;7.43;100.00
8229;BME280;4155;50.118;8.714;2022-09-30T01:01:41;99339.53;;;7.35;100.00
8229;BME280;4155;50.118;8.714;2022-09-30T01:04:10;99336.25;;;7.40;100.00
8229;BME280;4155;50.118;8.714;2022-09-30T01:06:41;99332.28;;;7.29;100.00
8229;BME280;4155;50.118;8.714;2022-09-30T01:09:09;99335.78;;;7.30;100.00
8229;BME280;4155;50.118;8.714;2022-09-30T01:11:38;99333.69;;;7.25;100.00
8229;BME280;4155;50.118;8.714;2022-09-30T01:14:07;99335.06;;;7.21;100.00
8229;BME280;4155;50.118;8.714;2022-09-30T01:16:54;99335.69;;;7.23;100.00
8229;BME280;4155;50.118;8.714;2022-09-30T01:19:50;99336.47;;;7.17;100.00
8229;BME280;4155;50.118;8.714;2022-09-30T01:22:37;99330.25;;;7.10;100.00
8229;BME280;4155;50.118;8.714;2022-09-30T01:28:21;99342.63;;;6.96;100.00
8229;BME280;4155;50.118;8.714;2022-09-30T01:31:02;99344.91;;;6.99;100.00
8229;BME280;4155;50.118;8.714;2022-09-30T01:33:42;99344.72;;;7.01;100.00
8229;BME280;4155;50.118;8.714;2022-09-30T01:36:23;99336.19;;;7.05;100.00
8229;BME280;4155;50.118;8.714;2022-09-30T01:39:00;99341.69;;;7.04;100.00
8229;BME280;4155;50.118;8.714;2022-09-30T01:41:35;99340.69;;;7.05;100.00
8229;BME280;4155;50.118;8.714;2022-09-30T01:44:12;99341.50;;;7.05;100.00
8229;BME280;4155;50.118;8.714;2022-09-30T01:46:47;99352.28;;;6.97;100.00
8229;BME280;4155;50.118;8.714;2022-09-30T01:49:20;99347.25;;;6.87;100.00
8229;BME280;4155;50.118;8.714;2022-09-30T01:51:56;99351.06;;;6.78;100.00
8229;BME280;4155;50.118;8.714;2022-09-30T01:54:31;99354.34;;;6.80;100.00
8229;BME280;4155;50.118;8.714;2022-09-30T01:57:05;99345.09;;;6.76;100.00
8229;BME280;4155;50.118;8.714;2022-09-30T01:59:36;99352.84;;;6.71;100.00
8229;BME280;4155;50.118;8.714;2022-09-30T02:02:12;99348.25;;;6.65;100.00
8229;BME280;4155;50.118;8.714;2022-09-30T02:04:47;99351.94;;;6.64;100.00
8229;BME280;4155;50.118;8.714;2022-09-30T02:07:21;99348.34;;;6.72;100.00
8229;BME280;4155;50.118;8.714;2022-09-30T02:09:55;99347.50;;;6.71;100.00
8229;BME280;4155;50.118;8.714;2022-09-30T02:12:30;99358.28;;;6.63;100.00
8229;BME280;4155;50.118;8.714;2022-09-30T02:15:02;99357.44;;;6.62;100.00
8229;BME280;4155;50.118;8.714;2022-09-30T02:17:36;99357.84;;;6.59;100.00
8229;BME280;4155;50.118;8.714;2022-09-30T02:20:11;99356.94;;;6.52;100.00
8229;BME280;4155;50.118;8.714;2022-09-30T02:22:42;99362.63;;;6.49;100.00
8229;BME280;4155;50.118;8.714;2022-09-30T02:25:16;99360.69;;;6.43;100.00
8229;BME280;4155;50.118;8.714;2022-09-30T02:27:49;99356.78;;;6.39;100.00
8229;BME280;4155;50.118;8.714;2022-09-30T02:30:20;99362.25;;;6.37;100.00
8229;BME280;4155;50.118;8.714;2022-09-30T02:32:55;99357.78;;;6.38;100.00
8229;BME280;4155;50.118;8.714;2022-09-30T02:35:26;99367.03;;;6.42;100.00
8229;BME280;4155;50.118;8.714;2022-09-30T02:37:58;99362.78;;;6.48;100.00
8229;BME280;4155;50.118;8.714;2022-09-30T02:40:32;99361.28;;;6.38;100.00
8229;BME280;4155;50.118;8.714;2022-09-30T02:43:03;99360.50;;;6.45;100.00
8229;BME280;4155;50.118;8.714;2022-09-30T02:45:37;99365.47;;;6.48;100.00
8229;BME280;4155;50.118;8.714;2022-09-30T02:48:19;99366.41;;;6.40;100.00
8229;BME280;4155;50.118;8.714;2022-09-30T02:50:53;99367.31;;;6.32;100.00
8229;BME280;4155;50.118;8.714;2022-09-30T02:53:26;99370.63;;;6.34;100.00
8229;BME280;4155;50.118;8.714;2022-09-30T02:56:16;99376.97;;;6.33;100.00
8229;BME280;4155;50.118;8.714;2022-09-30T02:58:46;99384.94;;;6.48;100.00
8229;BME280;4155;50.118;8.714;2022-09-30T03:01:16;99389.16;;;6.43;100.00
8229;BME280;4155;50.118;8.714;2022-09-30T03:03:48;99388.06;;;6.37;100.00
8229;BME280;4155;50.118;8.714;2022-09-30T03:06:17;99398.72;;;6.37;100.00
8229;BME280;4155;50.118;8.714;2022-09-30T03:08:46;99401.50;;;6.29;100.00
8229;BME280;4155;50.118;8.714;2022-09-30T03:11:15;99404.25;;;6.21;100.00
8229;BME280;4155;50.118;8.714;2022-09-30T03:13:56;99405.50;;;6.25;100.00
8229;BME280;4155;50.118;8.714;2022-09-30T03:16:41;99399.47;;;6.31;100.00
8229;BME280;4155;50.118;8.714;2022-09-30T03:19:31;99401.84;;;6.26;100.00
8229;BME280;4155;50.118;8.714;2022-09-30T03:22:17;99407.53;;;6.23;100.00
8229;BME280;4155;50.118;8.714;2022-09-30T03:25:03;99397.63;;;6.17;100.00
8229;BME280;4155;50.118;8.714;2022-09-30T03:27:44;99399.56;;;6.08;100.00
8229;BME280;4155;50.118;8.714;2022-09-30T03:30:19;99401.28;;;6.01;100.00
8229;BME280;4155;50.118;8.714;2022-09-30T03:33:00;99408.00;;;5.97;100.00
8229;BME280;4155;50.118;8.714;2022-09-30T03:35:42;99403.31;;;5.99;100.00
8229;BME280;4155;50.118;8.714;2022-09-30T03:38:22;99394.88;;;6.10;100.00
8229;BME280;4155;50.118;8.714;2022-09-30T03:41:01;99393.69;;;6.13;100.00
8229;BME280;4155;50.118;8.714;2022-09-30T03:43:33;99404.97;;;6.00;100.00
8229;BME280;4155;50.118;8.714;2022-09-30T03:46:05;99404.31;;;5.98;100.00
8229;BME280;4155;50.118;8.714;2022-09-30T03:48:40;99414.59;;;6.01;100.00
8229;BME280;4155;50.118;8.714;2022-09-30T03:51:10;99409.47;;;5.99;100.00
8229;BME280;4155;50.118;8.714;2022-09-30T03:53:39;99408.03;;;5.89;100.00
8229;BME280;4155;50.118;8.714;2022-09-30T03:56:07;99408.56;;;5.84;100.00
8229;BME280;4155;50.118;8.714;2022-09-30T03:58:39;99415.56;;;5.85;100.00
8229;BME280;4155;50.118;8.714;2022-09-30T04:01:11;99410.06;;;5.87;100.00
8229;BME280;4155;50.118;8.714;2022-09-30T04:03:44;99412.16;;;5.76;100.00
8229;BME280;4155;50.118;8.714;2022-09-30T04:06:14;99414.81;;;5.76;100.00
8229;BME280;4155;50.118;8.714;2022-09-30T04:08:41;99421.53;;;5.87;100.00
8229;BME280;4155;50.118;8.714;2022-09-30T04:11:10;99421.53;;;5.87;100.00
8229;BME280;4155;50.118;8.714;2022-09-30T04:13:38;99428.69;;;5.87;100.00
8229;BME280;4155;50.118;8.714;2022-09-30T04:16:05;99430.41;;;5.79;100.00
8229;BME280;4155;50.118;8.714;2022-09-30T04:18:34;99433.34;;;5.85;100.00
8229;BME280;4155;50.118;8.714;2022-09-30T04:21:04;99428.13;;;5.76;100.00
8229;BME280;4155;50.118;8.714;2022-09-30T04:23:39;99434.59;;;5.74;100.00
8229;BME280;4155;50.118;8.714;2022-09-30T04:26:09;99434.59;;;5.74;100.00
8229;BME280;4155;50.118;8.714;2022-09-30T04:28:38;99445.97;;;5.68;100.00
8229;BME280;4155;50.118;8.714;2022-09-30T04:31:06;99445.97;;;5.68;100.00
8229;BME280;4155;50.118;8.714;2022-09-30T04:33:33;99443.50;;;5.66;100.00
8229;BME280;4155;50.118;8.714;2022-09-30T04:36:01;99441.03;;;5.65;100.00
8229;BME280;4155;50.118;8.714;2022-09-30T04:38:30;99447.03;;;5.59;100.00
8229;BME280;4155;50.118;8.714;2022-09-30T04:41:01;99450.06;;;5.56;100.00
8229;BME280;4155;50.118;8.714;2022-09-30T04:43:29;99453.19;;;5.59;100.00
8229;BME280;4155;50.118;8.714;2022-09-30T04:45:56;99454.84;;;5.60;100.00
8229;BME280;4155;50.118;8.714;2022-09-30T04:48:25;99451.66;;;5.65;100.00
8229;BME280;4155;50.118;8.714;2022-09-30T04:50:53;99454.31;;;5.65;100.00
8229;BME280;4155;50.118;8.714;2022-09-30T04:53:21;99460.97;;;5.61;100.00
8229;BME280;4155;50.118;8.714;2022-09-30T04:55:48;99466.03;;;5.56;100.00
8229;BME280;4155;50.118;8.714;2022-09-30T04:58:17;99463.06;;;5.50;100.00
8229;BME280;4155;50.118;8.714;2022-09-30T05:00:45;99468.09;;;5.45;100.00
8229;BME280;4155;50.118;8.714;2022-09-30T05:03:13;99473.22;;;5.47;100.00
8229;BME280;4155;50.118;8.714;2022-09-30T05:05:43;99476.94;;;5.61;100.00
8229;BME280;4155;50.118;8.714;2022-09-30T05:08:10;99472.25;;;5.63;100.00
8229;BME280;4155;50.118;8.714;2022-09-30T05:10:38;99482.03;;;5.47;100.00
8229;BME280;4155;50.118;8.714;2022-09-30T05:13:06;99475.66;;;5.57;100.00
8229;BME280;4155;50.118;8.714;2022-09-30T05:15:35;99484.03;;;5.45;100.00
8229;BME280;4155;50.118;8.714;2022-09-30T05:18:03;99488.53;;;5.45;100.00
8229;BME280;4155;50.118;8.714;2022-09-30T05:20:31;99491.66;;;5.48;100.00
8229;BME280;4155;50.118;8.714;2022-09-30T05:22:59;99495.50;;;5.46;100.00
8229;BME280;4155;50.118;8.714;2022-09-30T05:25:27;99494.13;;;5.50;100.00
8229;BME280;4155;50.118;8.714;2022-09-30T05:27:54;99499.41;;;5.58;100.00
8229;BME280;4155;50.118;8.714;2022-09-30T05:30:22;99503.84;;;5.66;100.00
8229;BME280;4155;50.118;8.714;2022-09-30T05:32:51;99503.22;;;5.64;100.00
8229;BME280;4155;50.118;8.714;2022-09-30T05:35:19;99503.66;;;5.67;100.00
8229;BME280;4155;50.118;8.714;2022-09-30T05:37:47;99506.78;;;5.71;100.00
8229;BME280;4155;50.118;8.714;2022-09-30T05:40:14;99507.28;;;5.74;100.00
8229;BME280;4155;50.118;8.714;2022-09-30T05:42:42;99517.56;;;5.77;100.00
8229;BME280;4155;50.118;8.714;2022-09-30T05:45:12;99519.25;;;5.70;100.00
8229;BME280;4155;50.118;8.714;2022-09-30T05:47:40;99527.72;;;5.74;100.00
8229;BME280;4155;50.118;8.714;2022-09-30T05:50:09;99537.09;;;5.85;100.00
8229;BME280;4155;50.118;8.714;2022-09-30T05:52:37;99542.91;;;5.96;100.00
8229;BME280;4155;50.118;8.714;2022-09-30T05:55:05;99559.44;;;6.06;100.00
8229;BME280;4155;50.118;8.714;2022-09-30T05:57:33;99565.16;;;6.18;100.00
8229;BME280;4155;50.118;8.714;2022-09-30T06:00:04;99562.47;;;6.56;100.00
8229;BME280;4155;50.118;8.714;2022-09-30T06:02:31;99577.28;;;7.53;100.00
8229;BME280;4155;50.118;8.714;2022-09-30T06:05:04;99587.00;;;8.19;100.00
8229;BME280;4155;50.118;8.714;2022-09-30T06:07:36;99584.34;;;8.96;100.00
8229;BME280;4155;50.118;8.714;2022-09-30T06:10:08;99584.69;;;9.89;97.94
8229;BME280;4155;50.118;8.714;2022-09-30T06:12:38;99589.72;;;10.71;87.73
8229;BME280;4155;50.118;8.714;2022-09-30T06:15:07;99588.03;;;10.96;80.65
8229;BME280;4155;50.118;8.714;2022-09-30T06:17:35;99587.97;;;11.74;76.69
8229;BME280;4155;50.118;8.714;2022-09-30T06:20:04;99592.25;;;12.20;71.44
8229;BME280;4155;50.118;8.714;2022-09-30T06:22:32;99590.16;;;11.91;68.23
8229;BME280;4155;50.118;8.714;2022-09-30T06:25:04;99589.00;;;11.73;69.86
8229;BME280;4155;50.118;8.714;2022-09-30T06:27:34;99597.84;;;12.43;66.57
8229;BME280;4155;50.118;8.714;2022-09-30T06:30:04;99600.81;;;12.85;65.41
8229;BME280;4155;50.118;8.714;2022-09-30T06:32:33;99599.84;;;12.80;65.26
8229;BME280;4155;50.118;8.714;2022-09-30T06:35:01;99595.09;;;13.00;62.70
8229;BME280;4155;50.118;8.714;2022-09-30T06:37:29;99587.66;;;12.95;64.29
8229;BME280;4155;50.118;8.714;2022-09-30T06:39:57;99591.69;;;13.29;61.98
8229;BME280;4155;50.118;8.714;2022-09-30T06:42:26;99584.88;;;13.45;62.66
8229;BME280;4155;50.118;8.714;2022-09-30T06:44:54;99584.31;;;13.00;63.58
8229;BME280;4155;50.118;8.714;2022-09-30T06:47:22;99581.03;;;14.13;61.43
8229;BME280;4155;50.118;8.714;2022-09-30T06:49:51;99582.03;;;14.30;60.17
8229;BME280;4155;50.118;8.714;2022-09-30T06:52:24;99574.81;;;15.01;57.33
8229;BME280;4155;50.118;8.714;2022-09-30T06:54:52;99571.78;;;13.79;60.83
8229;BME280;4155;50.118;8.714;2022-09-30T06:57:22;99566.19;;;13.32;62.68
8229;BME280;4155;50.118;8.714;2022-09-30T06:59:53;99582.69;;;14.67;59.55
8229;BME280;4155;50.118;8.714;2022-09-30T07:02:21;99578.88;;;14.03;60.07
8229;BME280;4155;50.118;8.714;2022-09-30T07:04:49;99576.19;;;14.45;58.50
8229;BME280;4155;50.118;8.714;2022-09-30T07:07:16;99580.72;;;12.88;65.50
8229;BME280;4155;50.118;8.714;2022-09-30T07:09:47;99581.38;;;12.83;64.75
8229;BME280;4155;50.118;8.714;2022-09-30T07:12:15;99584.63;;;13.95;61.46
8229;BME280;4155;50.118;8.714;2022-09-30T07:14:43;99576.25;;;13.00;63.93
8229;BME280;4155;50.118;8.714;2022-09-30T07:17:12;99577.31;;;13.54;63.53
8229;BME280;4155;50.118;8.714;2022-09-30T07:19:39;99574.16;;;13.87;61.75
8229;BME280;4155;50.118;8.714;2022-09-30T07:22:07;99581.16;;;14.83;59.64
8229;BME280;4155;50.118;8.714;2022-09-30T07:24:53;99575.16;;;15.16;58.00
8229;BME280;4155;50.118;8.714;2022-09-30T07:27:20;99579.94;;;16.06;55.45
8229;BME280;4155;50.118;8.714;2022-09-30T07:29:48;99563.84;;;13.54;62.68
8229;BME280;4155;50.118;8.714;2022-09-30T07:32:37;99568.97;;;14.04;62.55
8229;BME280;4155;50.118;8.714;2022-09-30T07:35:05;99573.88;;;14.72;58.95
8229;BME280;4155;50.118;8.714;2022-09-30T07:37:33;99584.81;;;15.52;57.59
8229;BME280;4155;50.118;8.714;2022-09-30T07:40:04;99589.25;;;15.58;57.36
8229;BME280;4155;50.118;8.714;2022-09-30T07:42:32;99592.03;;;16.32;55.11
8229;BME280;4155;50.118;8.714;2022-09-30T07:45:03;99581.06;;;14.78;57.56
8229;BME280;4155;50.118;8.714;2022-09-30T07:47:31;99585.50;;;14.72;58.77
8229;BME280;4155;50.118;8.714;2022-09-30T07:50:01;99579.97;;;14.56;59.93
8229;BME280;4155;50.118;8.714;2022-09-30T07:52:29;99592.28;;;14.52;60.16
8229;BME280;4155;50.118;8.714;2022-09-30T07:54:57;99586.22;;;14.68;61.28
8229;BME280;4155;50.118;8.714;2022-09-30T07:57:24;99594.75;;;16.04;57.51
8229;BME280;4155;50.118;8.714;2022-09-30T07:59:52;99591.81;;;14.55;60.54
8229;BME280;4155;50.118;8.714;2022-09-30T08:02:20;99599.97;;;15.65;57.81
8229;BME280;4155;50.118;8.714;2022-09-30T08:04:50;99606.81;;;15.44;57.70
8229;BME280;4155;50.118;8.714;2022-09-30T08:07:19;99606.56;;;16.14;55.47
8229;BME280;4155;50.118;8.714;2022-09-30T08:09:46;99603.59;;;15.99;56.56
8229;BME280;4155;50.118;8.714;2022-09-30T08:12:14;99597.94;;;13.60;63.16
8229;BME280;4155;50.118;8.714;2022-09-30T08:14:42;99606.09;;;14.43;61.85
8229;BME280;4155;50.118;8.714;2022-09-30T08:17:10;99612.31;;;13.72;64.08
8229;BME280;4155;50.118;8.714;2022-09-30T08:19:41;99608.41;;;15.05;61.26
8229;BME280;4155;50.118;8.714;2022-09-30T08:22:10;99611.88;;;13.57;63.82
8229;BME280;4155;50.118;8.714;2022-09-30T08:24:41;99620.88;;;14.41;62.29
8229;BME280;4155;50.118;8.714;2022-09-30T08:27:08;99610.97;;;12.83;65.62
8229;BME280;4155;50.118;8.714;2022-09-30T08:29:36;99610.88;;;13.70;64.08
8229;BME280;4155;50.118;8.714;2022-09-30T08:32:22;99621.53;;;13.28;65.50
8229;BME280;4155;50.118;8.714;2022-09-30T08:34:50;99621.38;;;12.80;66.83
8229;BME280;4155;50.118;8.714;2022-09-30T08:37:18;99620.22;;;12.69;68.79
8229;BME280;4155;50.118;8.714;2022-09-30T08:39:47;99625.63;;;13.49;65.38
8229;BME280;4155;50.118;8.714;2022-09-30T08:42:36;99632.06;;;13.84;64.81
8229;BME280;4155;50.118;8.714;2022-09-30T08:45:20;99627.88;;;14.60;62.44
8229;BME280;4155;50.118;8.714;2022-09-30T08:47:59;99631.53;;;12.78;66.27
8229;BME280;4155;50.118;8.714;2022-09-30T08:50:35;99635.16;;;12.90;67.91
8229;BME280;4155;50.118;8.714;2022-09-30T08:53:13;99628.88;;;12.71;68.01
8229;BME280;4155;50.118;8.714;2022-09-30T08:55:44;99630.41;;;12.35;69.08
8229;BME280;4155;50.118;8.714;2022-09-30T08:58:19;99620.84;;;12.64;68.96
8229;BME280;4155;50.118;8.714;2022-09-30T09:00:54;99627.94;;;12.84;68.41
8229;BME280;4155;50.118;8.714;2022-09-30T09:03:26;99625.84;;;12.86;68.63
8229;BME280;4155;50.118;8.714;2022-09-30T09:06:00;99614.97;;;12.56;70.47
8229;BME280;4155;50.118;8.714;2022-09-30T09:08:38;99623.16;;;12.86;69.19
8229;BME280;4155;50.118;8.714;2022-09-30T09:11:25;99619.44;;;13.30;68.33
8229;BME280;4155;50.118;8.714;2022-09-30T09:14:03;99627.06;;;13.33;68.37
8229;BME280;4155;50.118;8.714;2022-09-30T09:16:36;99628.84;;;13.39;69.12
8229;BME280;4155;50.118;8.714;2022-09-30T09:19:08;99631.47;;;13.64;67.91
8229;BME280;4155;50.118;8.714;2022-09-30T09:21:45;99628.31;;;13.67;67.13
8229;BME280;4155;50.118;8.714;2022-09-30T09:24:18;99626.63;;;13.36;67.75
8229;BME280;4155;50.118;8.714;2022-09-30T09:26:50;99624.91;;;12.98;68.42
8229;BME280;4155;50.118;8.714;2022-09-30T09:29:35;99632.31;;;13.03;69.09
8229;BME280;4155;50.118;8.714;2022-09-30T09:32:10;99625.34;;;13.39;68.45
8229;BME280;4155;50.118;8.714;2022-09-30T09:34:40;99633.72;;;13.49;68.64
8229;BME280;4155;50.118;8.714;2022-09-30T09:37:15;99623.00;;;13.79;66.90
8229;BME280;4155;50.118;8.714;2022-09-30T09:39:58;99627.84;;;13.88;66.70
8229;BME280;4155;50.118;8.714;2022-09-30T09:42:40;99629.50;;;13.71;66.36
8229;BME280;4155;50.118;8.714;2022-09-30T09:45:22;99627.78;;;13.77;67.47
8229;BME280;4155;50.118;8.714;2022-09-30T09:47:53;99632.19;;;13.89;66.41
8229;BME280;4155;50.118;8.714;2022-09-30T09:50:25;99633.19;;;14.07;66.78
8229;BME280;4155;50.118;8.714;2022-09-30T09:53:15;99636.09;;;14.35;65.12
8229;BME280;4155;50.118;8.714;2022-09-30T09:55:48;99641.22;;;14.67;64.74
8229;BME280;4155;50.118;8.714;2022-09-30T09:58:17;99632.34;;;14.78;63.47
8229;BME280;4155;50.118;8.714;2022-09-30T10:00:46;99636.63;;;14.56;63.67
8229;BME280;4155;50.118;8.714;2022-09-30T10:04:10;99635.88;;;14.79;63.51
8229;BME280;4155;50.118;8.714;2022-09-30T10:06:42;99637.63;;;14.96;62.40
8229;BME280;4155;50.118;8.714;2022-09-30T10:09:25;99638.56;;;15.02;62.13
8229;BME280;4155;50.118;8.714;2022-09-30T10:12:23;99643.34;;;14.76;61.66
8229;BME280;4155;50.118;8.714;2022-09-30T10:14:58;99641.84;;;14.92;60.15
8229;BME280;4155;50.118;8.714;2022-09-30T10:17:27;99640.31;;;14.73;60.98
8229;BME280;4155;50.118;8.714;2022-09-30T10:20:05;99631.41;;;14.84;61.58
8229;BME280;4155;50.118;8.714;2022-09-30T10:22:35;99632.47;;;15.07;61.01
8229;BME280;4155;50.118;8.714;2022-09-30T10:25:16;99629.88;;;14.88;61.40
8229;BME280;4155;50.118;8.714;2022-09-30T10:27:51;99624.47;;;14.88;59.84
8229;BME280;4155;50.118;8.714;2022-09-30T10:30:39;99627.63;;;14.73;62.12
8229;BME280;4155;50.118;8.714;2022-09-30T10:33:14;99623.66;;;14.88;60.42
8229;BME280;4155;50.118;8.714;2022-09-30T10:35:51;99620.97;;;14.99;60.75
8229;BME280;4155;50.118;8.714;2022-09-30T10:38:19;99621.41;;;15.20;60.91
8229;BME280;4155;50.118;8.714;2022-09-30T10:40:49;99622.00;;;15.33;60.86
8229;BME280;4155;50.118;8.714;2022-09-30T10:43:26;99614.94;;;15.44;61.05
8229;BME280;4155;50.118;8.714;2022-09-30T10:45:57;99616.88;;;15.72;62.00
8229;BME280;4155;50.118;8.714;2022-09-30T10:48:50;99626.13;;;15.88;63.28
8229;BME280;4155;50.118;8.714;2022-09-30T10:51:28;99617.47;;;15.74;59.93
8229;BME280;4155;50.118;8.714;2022-09-30T10:53:57;99614.41;;;15.59;60.16
8229;BME280;4155;50.118;8.714;2022-09-30T10:56:40;99614.78;;;15.62;60.29
8229;BME280;4155;50.118;8.714;2022-09-30T10:59:15;99609.50;;;15.56;60.59
8229;BME280;4155;50.118;8.714;2022-09-30T11:01:50;99611.72;;;15.59;60.11
8229;BME280;4155;50.118;8.714;2022-09-30T11:04:28;99606.91;;;15.61;59.27
8229;BME280;4155;50.118;8.714;2022-09-30T11:07:08;99603.34;;;15.72;58.24
8229;BME280;4155;50.118;8.714;2022-09-30T11:09:45;99598.06;;;15.77;58.60
8229;BME280;4155;50.118;8.714;2022-09-30T11:12:19;99600.50;;;15.79;57.88
8229;BME280;4155;50.118;8.714;2022-09-30T11:14:58;99597.84;;;15.55;58.79
8229;BME280;4155;50.118;8.714;2022-09-30T11:17:33;99594.13;;;15.45;58.57
8229;BME280;4155;50.118;8.714;2022-09-30T11:20:10;99593.28;;;15.56;58.77
8229;BME280;4155;50.118;8.714;2022-09-30T11:22:45;99588.84;;;15.38;59.34
8229;BME280;4155;50.118;8.714;2022-09-30T11:25:18;99591.47;;;15.10;59.37
8229;BME280;4155;50.118;8.714;2022-09-30T11:28:10;99591.25;;;15.11;60.85
8229;BME280;4155;50.118;8.714;2022-09-30T11:30:47;99582.28;;;15.34;59.34
8229;BME280;4155;50.118;8.714;2022-09-30T11:33:34;99590.44;;;15.74;58.21
8229;BME280;4155;50.118;8.714;2022-09-30T11:36:11;99594.81;;;15.64;58.39
8229;BME280;4155;50.118;8.714;2022-09-30T11:39:00;99590.44;;;15.11;57.89
8229;BME280;4155;50.118;8.714;2022-09-30T11:41:33;99586.69;;;15.52;57.91
8229;BME280;4155;50.118;8.714;2022-09-30T11:44:11;99589.22;;;15.82;56.57
8229;BME280;4155;50.118;8.714;2022-09-30T11:50:03;99585.69;;;16.10;54.42
8229;BME280;4155;50.118;8.714;2022-09-30T11:52:40;99591.63;;;16.40;53.73
8229;BME280;4155;50.118;8.714;2022-09-30T11:55:31;99590.91;;;16.00;53.92
8229;BME280;4155;50.118;8.714;2022-09-30T11:58:03;99598.69;;;16.41;52.08
8229;BME280;4155;50.118;8.714;2022-09-30T12:01:05;99587.81;;;16.08;51.82
8229;BME280;4155;50.118;8.714;2022-09-30T12:03:39;99587.75;;;16.53;52.09
8229;BME280;4155;50.118;8.714;2022-09-30T12:06:21;99589.72;;;16.58;51.28
8229;BME280;4155;50.118;8.714;2022-09-30T12:08:55;99586.34;;;16.67;50.19
8229;BME280;4155;50.118;8.714;2022-09-30T12:11:31;99590.72;;;16.68;50.23
8229;BME280;4155;50.118;8.714;2022-09-30T12:14:04;99587.13;;;16.63;51.38
8229;BME280;4155;50.118;8.714;2022-09-30T12:16:34;99589.97;;;16.90;51.38
8229;BME280;4155;50.118;8.714;2022-09-30T12:19:12;99590.31;;;16.93;50.68
8229;BME280;4155;50.118;8.714;2022-09-30T12:21:49;99577.84;;;16.75;50.36
8229;BME280;4155;50.118;8.714;2022-09-30T12:24:24;99581.97;;;17.17;50.60
8229;BME280;4155;50.118;8.714;2022-09-30T12:26:57;99585.56;;;16.84;50.02
8229;BME280;4155;50.118;8.714;2022-09-30T12:29:28;99578.50;;;16.32;53.42
8229;BME280;4155;50.118;8.714;2022-09-30T12:35:30;99576.16;;;16.07;54.75
8229;BME280;4155;50.118;8.714;2022-09-30T12:38:15;99581.34;;;16.09;51.14
8229;BME280;4155;50.118;8.714;2022-09-30T12:40:58;99580.41;;;16.03;53.67
8229;BME280;4155;50.118;8.714;2022-09-30T12:46:47;99586.88;;;16.64;49.83
8229;BME280;4155;50.118;8.714;2022-09-30T12:49:21;99577.19;;;16.52;51.65
8229;BME280;4155;50.118;8.714;2022-09-30T12:51:54;99579.66;;;16.53;52.53
8229;BME280;4155;50.118;8.714;2022-09-30T12:54:27;99594.72;;;16.99;52.34
8229;BME280;4155;50.118;8.714;2022-09-30T12:57:00;99584.44;;;17.18;50.28
8229;BME280;4155;50.118;8.714;2022-09-30T12:59:31;99586.81;;;17.15;52.02
8229;BME280;4155;50.118;8.714;2022-09-30T13:02:01;99586.03;;;16.97;52.47
8229;BME280;4155;50.118;8.714;2022-09-30T13:04:34;99587.25;;;16.56;52.87
8229;BME280;4155;50.118;8.714;2022-09-30T13:07:20;99589.66;;;16.53;53.25
8229;BME280;4155;50.118;8.714;2022-09-30T13:10:23;99585.38;;;16.90;52.50
8229;BME280;4155;50.118;8.714;2022-09-30T13:13:14;99587.72;;;16.82;51.81
8229;BME280;4155;50.118;8.714;2022-09-30T13:15:43;99582.41;;;16.58;51.02
8229;BME280;4155;50.118;8.714;2022-09-30T13:21:19;99575.50;;;16.00;54.01
8229;BME280;4155;50.118;8.714;2022-09-30T13:23:49;99573.38;;;15.74;53.59
8229;BME280;4155;50.118;8.714;2022-09-30T13:26:39;99567.81;;;15.80;53.75
8229;BME280;4155;50.118;8.714;2022-09-30T13:29:35;99573.16;;;16.20;52.31
8229;BME280;4155;50.118;8.714;2022-09-30T13:32:06;99570.19;;;16.22;51.28
8229;BME280;4155;50.118;8.714;2022-09-30T13:34:52;99574.19;;;16.03;50.97
8229;BME280;4155;50.118;8.714;2022-09-30T13:37:36;99573.53;;;16.12;51.07
8229;BME280;4155;50.118;8.714;2022-09-30T13:40:14;99583.81;;;16.44;52.22
8229;BME280;4155;50.118;8.714;2022-09-30T13:42:50;99580.88;;;16.62;51.92
8229;BME280;4155;50.118;8.714;2022-09-30T13:45:24;99586.06;;;17.19;50.32
8229;BME280;4155;50.118;8.714;2022-09-30T13:48:07;99582.53;;;17.41;50.45
8229;BME280;4155;50.118;8.714;2022-09-30T13:50:42;99583.38;;;17.41;49.04
8229;BME280;4155;50.118;8.714;2022-09-30T13:53:15;99585.50;;;17.61;49.64
8229;BME280;4155;50.118;8.714;2022-09-30T13:55:47;99581.94;;;17.33;50.00
8229;BME280;4155;50.118;8.714;2022-09-30T13:58:40;99575.16;;;17.14;50.34
8229;BME280;4155;50.118;8.714;2022-09-30T14:01:21;99573.25;;;16.93;51.99
8229;BME280;4155;50.118;8.714;2022-09-30T14:04:12;99572.50;;;16.97;52.23
8229;BME280;4155;50.118;8.714;2022-09-30T14:06:58;99573.88;;;17.00;52.12
8229;BME280;4155;50.118;8.714;2022-09-30T14:09:46;99571.31;;;17.32;50.96
8229;BME280;4155;50.118;8.714;2022-09-30T14:12:41;99563.06;;;17.44;51.11
8229;BME280;4155;50.118;8.714;2022-09-30T14:18:43;99558.63;;;17.76;49.69